Scilly, United Kingdom
Current Conditions -  °F | °C
As of 4:50 PM on Wednesday 28 Jan 2015 (Local Time) from EGHE Reporting Station
Rain Showers Rain Showers  
Wind Chill: 36°   Ceiling: Unl
Heat Index: 45°   Visibility: 5mi
Dew Point: 37°   Wind: 22mph
Humidity: 76%   Direction: 310°NW
Pressure: 29.85"   Gusts: NA
Location:  49.93°N, 6.31°W
Report Text: EGHE 281650Z 31019KT 8000 VCSH FEW012 SCT025 07/03 Q1011
Loading
Personal Weather Stations






























Interactive Weather Map New forecast layout! Learn more

10-Day Weather Forecast

Advertisements
Track Severe Weather on mobile